sensor_id;sensor_type;location;lat;lon;timestamp;P1;durP1;ratioP1;P2;durP2;ratioP2
67063;SDS011;58476;48.072;11.970;2023-04-03T00:01:13;6.88;;;2.25;;
67063;SDS011;58476;48.072;11.970;2023-04-03T00:03:39;8.88;;;2.67;;
67063;SDS011;58476;48.072;11.970;2023-04-03T00:06:05;5.68;;;2.50;;
67063;SDS011;58476;48.072;11.970;2023-04-03T00:08:30;7.65;;;2.20;;
67063;SDS011;58476;48.072;11.970;2023-04-03T00:10:56;11.55;;;2.72;;
67063;SDS011;58476;48.072;11.970;2023-04-03T00:13:22;13.13;;;2.65;;
67063;SDS011;58476;48.072;11.970;2023-04-03T00:15:48;17.02;;;2.45;;
67063;SDS011;58476;48.072;11.970;2023-04-03T00:18:13;17.50;;;2.67;;
67063;SDS011;58476;48.072;11.970;2023-04-03T00:20:39;11.60;;;2.47;;
67063;SDS011;58476;48.072;11.970;2023-04-03T00:23:04;10.02;;;2.42;;
67063;SDS011;58476;48.072;11.970;2023-04-03T00:25:30;14.38;;;2.72;;
67063;SDS011;58476;48.072;11.970;2023-04-03T00:27:55;15.27;;;2.65;;
67063;SDS011;58476;48.072;11.970;2023-04-03T00:30:21;7.05;;;2.60;;
67063;SDS011;58476;48.072;11.970;2023-04-03T00:32:47;7.18;;;3.20;;
67063;SDS011;58476;48.072;11.970;2023-04-03T00:35:13;7.90;;;2.75;;
67063;SDS011;58476;48.072;11.970;2023-04-03T00:37:39;15.90;;;3.58;;
67063;SDS011;58476;48.072;11.970;2023-04-03T00:40:04;11.50;;;2.58;;
67063;SDS011;58476;48.072;11.970;2023-04-03T00:42:30;13.20;;;2.70;;
67063;SDS011;58476;48.072;11.970;2023-04-03T00:47:21;6.20;;;2.28;;
67063;SDS011;58476;48.072;11.970;2023-04-03T00:49:47;7.13;;;2.05;;
67063;SDS011;58476;48.072;11.970;2023-04-03T00:52:16;4.38;;;2.25;;
67063;SDS011;58476;48.072;11.970;2023-04-03T00:54:44;4.22;;;2.10;;
67063;SDS011;58476;48.072;11.970;2023-04-03T00:57:12;5.32;;;2.20;;
67063;SDS011;58476;48.072;11.970;2023-04-03T00:59:40;7.88;;;2.25;;
67063;SDS011;58476;48.072;11.970;2023-04-03T01:02:09;8.30;;;2.40;;
67063;SDS011;58476;48.072;11.970;2023-04-03T01:04:38;7.07;;;2.38;;
67063;SDS011;58476;48.072;11.970;2023-04-03T01:09:33;8.52;;;2.10;;
67063;SDS011;58476;48.072;11.970;2023-04-03T01:14:46;3.70;;;2.20;;
67063;SDS011;58476;48.072;11.970;2023-04-03T01:19:52;4.53;;;2.15;;
67063;SDS011;58476;48.072;11.970;2023-04-03T01:22:34;7.45;;;2.75;;
67063;SDS011;58476;48.072;11.970;2023-04-03T01:25:21;4.85;;;2.10;;
67063;SDS011;58476;48.072;11.970;2023-04-03T01:27:47;7.68;;;2.33;;
67063;SDS011;58476;48.072;11.970;2023-04-03T01:30:12;3.88;;;2.10;;
67063;SDS011;58476;48.072;11.970;2023-04-03T01:32:41;5.00;;;1.90;;
67063;SDS011;58476;48.072;11.970;2023-04-03T01:35:08;6.88;;;1.90;;
67063;SDS011;58476;48.072;11.970;2023-04-03T01:37:34;3.30;;;1.90;;
67063;SDS011;58476;48.072;11.970;2023-04-03T01:39:59;5.13;;;2.50;;
67063;SDS011;58476;48.072;11.970;2023-04-03T01:42:25;2.85;;;1.88;;
67063;SDS011;58476;48.072;11.970;2023-04-03T01:44:50;4.57;;;2.10;;
67063;SDS011;58476;48.072;11.970;2023-04-03T01:47:15;5.68;;;2.10;;
67063;SDS011;58476;48.072;11.970;2023-04-03T01:49:41;5.57;;;2.75;;
67063;SDS011;58476;48.072;11.970;2023-04-03T01:52:07;3.28;;;2.10;;
67063;SDS011;58476;48.072;11.970;2023-04-03T01:54:32;4.05;;;2.00;;
67063;SDS011;58476;48.072;11.970;2023-04-03T01:56:57;2.45;;;2.00;;
67063;SDS011;58476;48.072;11.970;2023-04-03T01:59:23;3.75;;;1.98;;
67063;SDS011;58476;48.072;11.970;2023-04-03T02:01:49;4.13;;;2.55;;
67063;SDS011;58476;48.072;11.970;2023-04-03T02:04:15;2.47;;;1.92;;
67063;SDS011;58476;48.072;11.970;2023-04-03T02:06:40;6.00;;;2.13;;
67063;SDS011;58476;48.072;11.970;2023-04-03T02:09:06;6.05;;;1.98;;
67063;SDS011;58476;48.072;11.970;2023-04-03T02:11:31;5.50;;;2.08;;
67063;SDS011;58476;48.072;11.970;2023-04-03T02:13:56;2.10;;;1.77;;
67063;SDS011;58476;48.072;11.970;2023-04-03T02:16:22;5.53;;;3.03;;
67063;SDS011;58476;48.072;11.970;2023-04-03T02:18:48;2.33;;;2.00;;
67063;SDS011;58476;48.072;11.970;2023-04-03T02:21:13;2.00;;;1.80;;
67063;SDS011;58476;48.072;11.970;2023-04-03T02:23:39;2.97;;;1.77;;
67063;SDS011;58476;48.072;11.970;2023-04-03T02:26:12;2.33;;;1.83;;
67063;SDS011;58476;48.072;11.970;2023-04-03T02:28:39;3.90;;;2.47;;
67063;SDS011;58476;48.072;11.970;2023-04-03T02:31:05;3.22;;;1.80;;
67063;SDS011;58476;48.072;11.970;2023-04-03T02:33:30;3.83;;;2.15;;
67063;SDS011;58476;48.072;11.970;2023-04-03T02:35:57;3.08;;;1.90;;
67063;SDS011;58476;48.072;11.970;2023-04-03T02:38:23;3.25;;;1.90;;
67063;SDS011;58476;48.072;11.970;2023-04-03T02:40:49;3.15;;;2.22;;
67063;SDS011;58476;48.072;11.970;2023-04-03T02:43:14;2.35;;;1.83;;
67063;SDS011;58476;48.072;11.970;2023-04-03T02:45:40;3.25;;;1.90;;
67063;SDS011;58476;48.072;11.970;2023-04-03T02:48:05;2.70;;;1.90;;
67063;SDS011;58476;48.072;11.970;2023-04-03T02:50:31;3.38;;;2.10;;
67063;SDS011;58476;48.072;11.970;2023-04-03T02:52:56;3.80;;;1.98;;
67063;SDS011;58476;48.072;11.970;2023-04-03T02:55:21;2.67;;;2.22;;
67063;SDS011;58476;48.072;11.970;2023-04-03T02:57:49;2.40;;;1.90;;
67063;SDS011;58476;48.072;11.970;2023-04-03T03:00:15;2.58;;;2.05;;
67063;SDS011;58476;48.072;11.970;2023-04-03T03:02:40;4.05;;;1.90;;
67063;SDS011;58476;48.072;11.970;2023-04-03T03:05:06;1.70;;;1.60;;
67063;SDS011;58476;48.072;11.970;2023-04-03T03:07:31;1.98;;;1.77;;
67063;SDS011;58476;48.072;11.970;2023-04-03T03:09:57;4.68;;;1.95;;
67063;SDS011;58476;48.072;11.970;2023-04-03T03:12:22;2.05;;;1.80;;
67063;SDS011;58476;48.072;11.970;2023-04-03T03:14:48;4.22;;;2.00;;
67063;SDS011;58476;48.072;11.970;2023-04-03T03:17:15;3.47;;;1.80;;
67063;SDS011;58476;48.072;11.970;2023-04-03T03:19:40;3.15;;;1.70;;
67063;SDS011;58476;48.072;11.970;2023-04-03T03:22:06;2.00;;;1.80;;
67063;SDS011;58476;48.072;11.970;2023-04-03T03:24:31;2.10;;;1.90;;
67063;SDS011;58476;48.072;11.970;2023-04-03T03:26:57;2.63;;;1.80;;
67063;SDS011;58476;48.072;11.970;2023-04-03T03:29:23;2.50;;;1.75;;
67063;SDS011;58476;48.072;11.970;2023-04-03T03:31:48;2.58;;;2.03;;
67063;SDS011;58476;48.072;11.970;2023-04-03T03:34:14;6.45;;;1.92;;
67063;SDS011;58476;48.072;11.970;2023-04-03T03:36:39;12.18;;;2.20;;
67063;SDS011;58476;48.072;11.970;2023-04-03T03:39:05;6.22;;;2.10;;
67063;SDS011;58476;48.072;11.970;2023-04-03T03:41:30;9.82;;;2.30;;
67063;SDS011;58476;48.072;11.970;2023-04-03T03:43:56;4.97;;;1.92;;
67063;SDS011;58476;48.072;11.970;2023-04-03T03:46:21;6.03;;;1.90;;
67063;SDS011;58476;48.072;11.970;2023-04-03T03:48:47;10.65;;;3.00;;
67063;SDS011;58476;48.072;11.970;2023-04-03T03:51:12;5.90;;;1.92;;
67063;SDS011;58476;48.072;11.970;2023-04-03T03:53:38;5.95;;;1.92;;
67063;SDS011;58476;48.072;11.970;2023-04-03T03:56:07;3.95;;;1.80;;
67063;SDS011;58476;48.072;11.970;2023-04-03T03:58:34;12.65;;;1.95;;
67063;SDS011;58476;48.072;11.970;2023-04-03T04:01:04;3.47;;;2.03;;
67063;SDS011;58476;48.072;11.970;2023-04-03T04:03:32;10.52;;;2.10;;
67063;SDS011;58476;48.072;11.970;2023-04-03T04:05:57;7.13;;;2.40;;
67063;SDS011;58476;48.072;11.970;2023-04-03T04:08:23;27.90;;;3.47;;
67063;SDS011;58476;48.072;11.970;2023-04-03T04:10:49;37.13;;;3.55;;
67063;SDS011;58476;48.072;11.970;2023-04-03T04:13:16;19.20;;;2.42;;
67063;SDS011;58476;48.072;11.970;2023-04-03T04:15:42;29.00;;;3.20;;
67063;SDS011;58476;48.072;11.970;2023-04-03T04:18:08;28.52;;;2.83;;
67063;SDS011;58476;48.072;11.970;2023-04-03T04:20:34;25.83;;;2.97;;
67063;SDS011;58476;48.072;11.970;2023-04-03T04:23:00;27.25;;;2.90;;
67063;SDS011;58476;48.072;11.970;2023-04-03T04:25:26;14.73;;;2.30;;
67063;SDS011;58476;48.072;11.970;2023-04-03T04:27:52;15.82;;;2.40;;
67063;SDS011;58476;48.072;11.970;2023-04-03T04:30:17;18.40;;;2.97;;
67063;SDS011;58476;48.072;11.970;2023-04-03T04:32:45;19.13;;;3.00;;
67063;SDS011;58476;48.072;11.970;2023-04-03T04:35:11;22.48;;;2.42;;
67063;SDS011;58476;48.072;11.970;2023-04-03T04:37:40;12.60;;;2.60;;
67063;SDS011;58476;48.072;11.970;2023-04-03T04:40:06;21.02;;;3.15;;
67063;SDS011;58476;48.072;11.970;2023-04-03T04:42:33;17.90;;;2.63;;
67063;SDS011;58476;48.072;11.970;2023-04-03T04:44:58;20.58;;;2.80;;
67063;SDS011;58476;48.072;11.970;2023-04-03T04:47:23;10.43;;;2.30;;
67063;SDS011;58476;48.072;11.970;2023-04-03T04:49:49;19.58;;;2.70;;
67063;SDS011;58476;48.072;11.970;2023-04-03T04:52:15;11.25;;;2.65;;
67063;SDS011;58476;48.072;11.970;2023-04-03T04:54:41;16.40;;;2.55;;
67063;SDS011;58476;48.072;11.970;2023-04-03T04:57:06;17.35;;;2.80;;
67063;SDS011;58476;48.072;11.970;2023-04-03T04:59:32;16.92;;;2.92;;
67063;SDS011;58476;48.072;11.970;2023-04-03T05:01:58;10.93;;;2.17;;
67063;SDS011;58476;48.072;11.970;2023-04-03T05:04:24;10.30;;;2.47;;
67063;SDS011;58476;48.072;11.970;2023-04-03T05:06:55;10.18;;;1.98;;
67063;SDS011;58476;48.072;11.970;2023-04-03T05:09:23;11.88;;;2.22;;
67063;SDS011;58476;48.072;11.970;2023-04-03T05:11:50;14.52;;;2.50;;
67063;SDS011;58476;48.072;11.970;2023-04-03T05:14:18;10.43;;;2.72;;
67063;SDS011;58476;48.072;11.970;2023-04-03T05:16:44;18.88;;;2.88;;
67063;SDS011;58476;48.072;11.970;2023-04-03T05:19:09;10.95;;;2.58;;
67063;SDS011;58476;48.072;11.970;2023-04-03T05:21:36;19.08;;;3.78;;
67063;SDS011;58476;48.072;11.970;2023-04-03T05:26:33;22.35;;;2.80;;
67063;SDS011;58476;48.072;11.970;2023-04-03T05:28:59;12.75;;;2.72;;
67063;SDS011;58476;48.072;11.970;2023-04-03T05:31:25;22.33;;;2.88;;
67063;SDS011;58476;48.072;11.970;2023-04-03T05:33:51;19.85;;;2.80;;
67063;SDS011;58476;48.072;11.970;2023-04-03T05:36:17;24.83;;;3.22;;
67063;SDS011;58476;48.072;11.970;2023-04-03T05:38:46;18.92;;;2.90;;
67063;SDS011;58476;48.072;11.970;2023-04-03T05:41:12;29.85;;;4.45;;
67063;SDS011;58476;48.072;11.970;2023-04-03T05:43:37;21.35;;;3.00;;
67063;SDS011;58476;48.072;11.970;2023-04-03T05:46:03;28.77;;;4.22;;
67063;SDS011;58476;48.072;11.970;2023-04-03T05:48:29;19.77;;;3.50;;
67063;SDS011;58476;48.072;11.970;2023-04-03T05:50:54;27.40;;;3.45;;
67063;SDS011;58476;48.072;11.970;2023-04-03T05:53:23;26.20;;;3.92;;
67063;SDS011;58476;48.072;11.970;2023-04-03T05:58:18;11.70;;;2.50;;
67063;SDS011;58476;48.072;11.970;2023-04-03T06:00:45;16.45;;;2.45;;
67063;SDS011;58476;48.072;11.970;2023-04-03T06:03:11;18.85;;;3.55;;
67063;SDS011;58476;48.072;11.970;2023-04-03T06:05:36;87.18;;;12.15;;
67063;SDS011;58476;48.072;11.970;2023-04-03T06:08:02;9.00;;;2.78;;
67063;SDS011;58476;48.072;11.970;2023-04-03T06:10:27;18.27;;;2.50;;
67063;SDS011;58476;48.072;11.970;2023-04-03T06:12:53;33.22;;;3.45;;
67063;SDS011;58476;48.072;11.970;2023-04-03T06:15:18;18.73;;;2.72;;
67063;SDS011;58476;48.072;11.970;2023-04-03T06:17:43;45.38;;;4.53;;
67063;SDS011;58476;48.072;11.970;2023-04-03T06:20:09;30.17;;;3.47;;
67063;SDS011;58476;48.072;11.970;2023-04-03T06:22:35;24.88;;;3.67;;
67063;SDS011;58476;48.072;11.970;2023-04-03T06:25:00;31.30;;;2.97;;
67063;SDS011;58476;48.072;11.970;2023-04-03T06:27:26;22.85;;;3.17;;
67063;SDS011;58476;48.072;11.970;2023-04-03T06:29:52;19.45;;;3.30;;
67063;SDS011;58476;48.072;11.970;2023-04-03T06:32:17;12.98;;;3.00;;
67063;SDS011;58476;48.072;11.970;2023-04-03T06:34:42;22.73;;;3.35;;
67063;SDS011;58476;48.072;11.970;2023-04-03T06:37:15;12.70;;;3.13;;
67063;SDS011;58476;48.072;11.970;2023-04-03T06:39:42;27.20;;;2.78;;
67063;SDS011;58476;48.072;11.970;2023-04-03T06:42:07;21.55;;;3.97;;
67063;SDS011;58476;48.072;11.970;2023-04-03T06:44:43;7.25;;;2.20;;
67063;SDS011;58476;48.072;11.970;2023-04-03T06:47:10;19.95;;;2.45;;
67063;SDS011;58476;48.072;11.970;2023-04-03T06:49:37;13.88;;;4.90;;
67063;SDS011;58476;48.072;11.970;2023-04-03T06:52:03;17.02;;;2.15;;
67063;SDS011;58476;48.072;11.970;2023-04-03T06:54:28;14.13;;;2.58;;
67063;SDS011;58476;48.072;11.970;2023-04-03T06:56:53;13.85;;;2.30;;
67063;SDS011;58476;48.072;11.970;2023-04-03T06:59:19;10.48;;;2.47;;
67063;SDS011;58476;48.072;11.970;2023-04-03T07:01:44;17.60;;;2.35;;
67063;SDS011;58476;48.072;11.970;2023-04-03T07:04:09;9.93;;;2.38;;
67063;SDS011;58476;48.072;11.970;2023-04-03T07:06:35;9.43;;;2.35;;
67063;SDS011;58476;48.072;11.970;2023-04-03T07:09:00;9.30;;;2.10;;
67063;SDS011;58476;48.072;11.970;2023-04-03T07:11:26;9.90;;;2.35;;
67063;SDS011;58476;48.072;11.970;2023-04-03T07:13:52;17.02;;;2.00;;
67063;SDS011;58476;48.072;11.970;2023-04-03T07:16:17;6.03;;;2.35;;
67063;SDS011;58476;48.072;11.970;2023-04-03T07:18:43;7.53;;;2.03;;
67063;SDS011;58476;48.072;11.970;2023-04-03T07:21:08;6.75;;;1.85;;
67063;SDS011;58476;48.072;11.970;2023-04-03T07:23:34;3.97;;;1.90;;
67063;SDS011;58476;48.072;11.970;2023-04-03T07:25:59;4.95;;;1.65;;
67063;SDS011;58476;48.072;11.970;2023-04-03T07:28:24;5.68;;;1.85;;
67063;SDS011;58476;48.072;11.970;2023-04-03T07:30:51;5.55;;;1.95;;
67063;SDS011;58476;48.072;11.970;2023-04-03T07:33:18;5.57;;;1.70;;
67063;SDS011;58476;48.072;11.970;2023-04-03T07:35:45;3.80;;;1.75;;
67063;SDS011;58476;48.072;11.970;2023-04-03T07:38:11;3.17;;;1.67;;
67063;SDS011;58476;48.072;11.970;2023-04-03T07:40:37;4.63;;;1.70;;
67063;SDS011;58476;48.072;11.970;2023-04-03T07:43:02;6.70;;;1.90;;
67063;SDS011;58476;48.072;11.970;2023-04-03T07:45:28;6.82;;;1.90;;
67063;SDS011;58476;48.072;11.970;2023-04-03T07:47:54;2.67;;;1.67;;
67063;SDS011;58476;48.072;11.970;2023-04-03T07:50:20;3.53;;;1.70;;
67063;SDS011;58476;48.072;11.970;2023-04-03T07:52:45;4.65;;;1.60;;
67063;SDS011;58476;48.072;11.970;2023-04-03T07:55:11;2.88;;;1.70;;
67063;SDS011;58476;48.072;11.970;2023-04-03T07:57:36;6.05;;;2.22;;
67063;SDS011;58476;48.072;11.970;2023-04-03T08:00:02;3.50;;;2.03;;
67063;SDS011;58476;48.072;11.970;2023-04-03T08:02:37;8.00;;;2.00;;
67063;SDS011;58476;48.072;11.970;2023-04-03T08:05:02;6.55;;;1.80;;
67063;SDS011;58476;48.072;11.970;2023-04-03T08:07:28;6.03;;;1.85;;
67063;SDS011;58476;48.072;11.970;2023-04-03T08:09:53;5.90;;;1.80;;
67063;SDS011;58476;48.072;11.970;2023-04-03T08:12:18;3.35;;;1.80;;
67063;SDS011;58476;48.072;11.970;2023-04-03T08:14:44;5.38;;;2.10;;
67063;SDS011;58476;48.072;11.970;2023-04-03T08:17:09;4.70;;;1.70;;
67063;SDS011;58476;48.072;11.970;2023-04-03T08:19:35;2.65;;;1.80;;
67063;SDS011;58476;48.072;11.970;2023-04-03T08:22:00;5.30;;;1.70;;
67063;SDS011;58476;48.072;11.970;2023-04-03T08:24:26;4.05;;;1.65;;
67063;SDS011;58476;48.072;11.970;2023-04-03T08:26:51;2.70;;;1.63;;
67063;SDS011;58476;48.072;11.970;2023-04-03T08:29:16;3.10;;;1.60;;
67063;SDS011;58476;48.072;11.970;2023-04-03T08:31:42;4.00;;;1.98;;
67063;SDS011;58476;48.072;11.970;2023-04-03T08:34:07;3.13;;;1.70;;
67063;SDS011;58476;48.072;11.970;2023-04-03T08:36:32;3.33;;;1.60;;
67063;SDS011;58476;48.072;11.970;2023-04-03T08:38:58;2.33;;;1.40;;
67063;SDS011;58476;48.072;11.970;2023-04-03T08:43:58;9.75;;;1.73;;
67063;SDS011;58476;48.072;11.970;2023-04-03T08:52:14;3.40;;;1.73;;
67063;SDS011;58476;48.072;11.970;2023-04-03T08:54:49;7.20;;;1.75;;
67063;SDS011;58476;48.072;11.970;2023-04-03T08:57:28;3.30;;;1.73;;
67063;SDS011;58476;48.072;11.970;2023-04-03T08:59:57;2.17;;;1.50;;
67063;SDS011;58476;48.072;11.970;2023-04-03T09:02:28;3.05;;;1.70;;
67063;SDS011;58476;48.072;11.970;2023-04-03T09:04:55;4.68;;;1.77;;
67063;SDS011;58476;48.072;11.970;2023-04-03T09:07:22;4.32;;;1.70;;
67063;SDS011;58476;48.072;11.970;2023-04-03T09:09:55;4.07;;;1.80;;
67063;SDS011;58476;48.072;11.970;2023-04-03T09:17:49;7.47;;;1.92;;
67063;SDS011;58476;48.072;11.970;2023-04-03T09:23:09;2.88;;;1.55;;
67063;SDS011;58476;48.072;11.970;2023-04-03T09:25:41;3.53;;;1.52;;
67063;SDS011;58476;48.072;11.970;2023-04-03T09:28:08;5.78;;;1.80;;
67063;SDS011;58476;48.072;11.970;2023-04-03T09:30:33;4.70;;;1.80;;
67063;SDS011;58476;48.072;11.970;2023-04-03T09:32:59;4.05;;;1.80;;
67063;SDS011;58476;48.072;11.970;2023-04-03T09:35:32;11.55;;;2.10;;
67063;SDS011;58476;48.072;11.970;2023-04-03T09:42:52;5.30;;;2.08;;
67063;SDS011;58476;48.072;11.970;2023-04-03T09:45:23;2.45;;;1.98;;
67063;SDS011;58476;48.072;11.970;2023-04-03T09:48:37;5.32;;;1.67;;
67063;SDS011;58476;48.072;11.970;2023-04-03T09:55:56;2.90;;;1.50;;
67063;SDS011;58476;48.072;11.970;2023-04-03T09:58:30;7.57;;;1.85;;
67063;SDS011;58476;48.072;11.970;2023-04-03T10:01:02;5.70;;;1.75;;
67063;SDS011;58476;48.072;11.970;2023-04-03T10:03:32;5.95;;;1.80;;
67063;SDS011;58476;48.072;11.970;2023-04-03T10:06:00;6.75;;;3.05;;
67063;SDS011;58476;48.072;11.970;2023-04-03T10:11:11;5.80;;;2.10;;
67063;SDS011;58476;48.072;11.970;2023-04-03T10:13:49;3.72;;;1.88;;
67063;SDS011;58476;48.072;11.970;2023-04-03T10:16:16;5.70;;;1.60;;
67063;SDS011;58476;48.072;11.970;2023-04-03T10:18:46;2.67;;;2.10;;
67063;SDS011;58476;48.072;11.970;2023-04-03T10:27:27;6.57;;;2.20;;
67063;SDS011;58476;48.072;11.970;2023-04-03T10:38:33;6.60;;;2.22;;
67063;SDS011;58476;48.072;11.970;2023-04-03T10:52:09;2.57;;;1.80;;
67063;SDS011;58476;48.072;11.970;2023-04-03T10:57:36;3.60;;;1.83;;
67063;SDS011;58476;48.072;11.970;2023-04-03T11:00:04;2.35;;;1.70;;
67063;SDS011;58476;48.072;11.970;2023-04-03T11:03:15;6.07;;;1.98;;
67063;SDS011;58476;48.072;11.970;2023-04-03T11:08:30;6.28;;;2.13;;
67063;SDS011;58476;48.072;11.970;2023-04-03T11:11:11;3.97;;;2.00;;
67063;SDS011;58476;48.072;11.970;2023-04-03T11:13:41;3.55;;;1.85;;
67063;SDS011;58476;48.072;11.970;2023-04-03T11:16:17;4.10;;;1.90;;
67063;SDS011;58476;48.072;11.970;2023-04-03T11:18:52;5.55;;;1.90;;
67063;SDS011;58476;48.072;11.970;2023-04-03T11:21:29;3.55;;;1.70;;
67063;SDS011;58476;48.072;11.970;2023-04-03T11:23:59;3.30;;;1.70;;
67063;SDS011;58476;48.072;11.970;2023-04-03T11:26:30;6.53;;;1.92;;
67063;SDS011;58476;48.072;11.970;2023-04-03T11:29:01;4.40;;;2.10;;
67063;SDS011;58476;48.072;11.970;2023-04-03T11:34:24;5.65;;;2.10;;
67063;SDS011;58476;48.072;11.970;2023-04-03T11:37:05;4.47;;;2.00;;
67063;SDS011;58476;48.072;11.970;2023-04-03T11:39:50;3.85;;;2.00;;
67063;SDS011;58476;48.072;11.970;2023-04-03T11:45:52;4.75;;;1.75;;
67063;SDS011;58476;48.072;11.970;2023-04-03T11:47:57;7.15;;;1.80;;
67063;SDS011;58476;48.072;11.970;2023-04-03T11:50:43;2.20;;;1.63;;
67063;SDS011;58476;48.072;11.970;2023-04-03T11:58:13;2.80;;;1.88;;
67063;SDS011;58476;48.072;11.970;2023-04-03T12:05:50;5.63;;;1.98;;
67063;SDS011;58476;48.072;11.970;2023-04-03T12:08:25;4.65;;;2.08;;
67063;SDS011;58476;48.072;11.970;2023-04-03T12:29:19;5.85;;;1.88;;
67063;SDS011;58476;48.072;11.970;2023-04-03T12:32:12;4.72;;;1.70;;
67063;SDS011;58476;48.072;11.970;2023-04-03T12:48:17;3.72;;;2.20;;
67063;SDS011;58476;48.072;11.970;2023-04-03T12:50:47;1.95;;;1.70;;
67063;SDS011;58476;48.072;11.970;2023-04-03T12:53:18;3.28;;;1.80;;
67063;SDS011;58476;48.072;11.970;2023-04-03T12:55:46;2.92;;;1.80;;
67063;SDS011;58476;48.072;11.970;2023-04-03T12:58:25;3.20;;;1.55;;
67063;SDS011;58476;48.072;11.970;2023-04-03T13:01:25;4.05;;;1.88;;
67063;SDS011;58476;48.072;11.970;2023-04-03T13:03:56;3.88;;;1.80;;
67063;SDS011;58476;48.072;11.970;2023-04-03T13:06:23;5.40;;;1.58;;
67063;SDS011;58476;48.072;11.970;2023-04-03T13:08:53;4.05;;;1.70;;
67063;SDS011;58476;48.072;11.970;2023-04-03T13:11:21;4.13;;;1.55;;
67063;SDS011;58476;48.072;11.970;2023-04-03T13:14:21;5.70;;;1.80;;
67063;SDS011;58476;48.072;11.970;2023-04-03T13:16:42;2.38;;;1.50;;
67063;SDS011;58476;48.072;11.970;2023-04-03T13:19:17;5.28;;;1.70;;
67063;SDS011;58476;48.072;11.970;2023-04-03T13:21:42;4.50;;;1.83;;
67063;SDS011;58476;48.072;11.970;2023-04-03T13:24:09;6.80;;;1.73;;
67063;SDS011;58476;48.072;11.970;2023-04-03T13:26:35;6.57;;;2.15;;
67063;SDS011;58476;48.072;11.970;2023-04-03T13:29:05;4.93;;;1.95;;
67063;SDS011;58476;48.072;11.970;2023-04-03T13:34:17;7.57;;;2.10;;
67063;SDS011;58476;48.072;11.970;2023-04-03T13:37:06;4.50;;;1.55;;
67063;SDS011;58476;48.072;11.970;2023-04-03T13:39:32;5.68;;;3.03;;
67063;SDS011;58476;48.072;11.970;2023-04-03T13:42:00;3.78;;;2.00;;
67063;SDS011;58476;48.072;11.970;2023-04-03T13:44:39;4.60;;;1.80;;
67063;SDS011;58476;48.072;11.970;2023-04-03T13:49:37;7.65;;;1.85;;
67063;SDS011;58476;48.072;11.970;2023-04-03T13:55:11;8.95;;;1.70;;
67063;SDS011;58476;48.072;11.970;2023-04-03T14:00:28;9.13;;;1.70;;
67063;SDS011;58476;48.072;11.970;2023-04-03T14:02:59;7.60;;;1.90;;
67063;SDS011;58476;48.072;11.970;2023-04-03T14:05:24;11.75;;;2.08;;
67063;SDS011;58476;48.072;11.970;2023-04-03T14:07:50;7.88;;;1.73;;
67063;SDS011;58476;48.072;11.970;2023-04-03T14:10:16;9.95;;;2.35;;
67063;SDS011;58476;48.072;11.970;2023-04-03T14:12:41;8.40;;;1.90;;
67063;SDS011;58476;48.072;11.970;2023-04-03T14:15:18;6.95;;;1.50;;
67063;SDS011;58476;48.072;11.970;2023-04-03T14:17:47;8.50;;;1.90;;
67063;SDS011;58476;48.072;11.970;2023-04-03T14:20:14;6.93;;;2.10;;
67063;SDS011;58476;48.072;11.970;2023-04-03T14:22:44;10.02;;;1.70;;
67063;SDS011;58476;48.072;11.970;2023-04-03T14:25:09;5.93;;;1.70;;
67063;SDS011;58476;48.072;11.970;2023-04-03T14:27:37;3.65;;;1.60;;
67063;SDS011;58476;48.072;11.970;2023-04-03T14:30:05;7.47;;;1.50;;
67063;SDS011;58476;48.072;11.970;2023-04-03T14:32:33;7.80;;;1.80;;
67063;SDS011;58476;48.072;11.970;2023-04-03T14:34:58;6.45;;;1.70;;
67063;SDS011;58476;48.072;11.970;2023-04-03T14:37:26;6.05;;;1.50;;
67063;SDS011;58476;48.072;11.970;2023-04-03T14:39:53;5.18;;;1.52;;
67063;SDS011;58476;48.072;11.970;2023-04-03T14:42:24;5.55;;;1.40;;
67063;SDS011;58476;48.072;11.970;2023-04-03T14:44:52;4.70;;;2.58;;
67063;SDS011;58476;48.072;11.970;2023-04-03T14:47:19;5.57;;;1.67;;
67063;SDS011;58476;48.072;11.970;2023-04-03T14:49:46;7.82;;;1.60;;
67063;SDS011;58476;48.072;11.970;2023-04-03T14:52:25;4.70;;;1.50;;
67063;SDS011;58476;48.072;11.970;2023-04-03T14:55:01;7.32;;;2.05;;
67063;SDS011;58476;48.072;11.970;2023-04-03T14:57:29;4.68;;;2.00;;
67063;SDS011;58476;48.072;11.970;2023-04-03T14:59:55;4.80;;;1.48;;
67063;SDS011;58476;48.072;11.970;2023-04-03T15:04:51;4.30;;;1.98;;
67063;SDS011;58476;48.072;11.970;2023-04-03T15:07:16;6.72;;;1.73;;
67063;SDS011;58476;48.072;11.970;2023-04-03T15:09:42;15.43;;;4.93;;
67063;SDS011;58476;48.072;11.970;2023-04-03T15:12:08;19.33;;;2.50;;
67063;SDS011;58476;48.072;11.970;2023-04-03T15:14:33;15.50;;;2.20;;
67063;SDS011;58476;48.072;11.970;2023-04-03T15:16:59;9.80;;;2.20;;
67063;SDS011;58476;48.072;11.970;2023-04-03T15:19:28;7.60;;;2.58;;
67063;SDS011;58476;48.072;11.970;2023-04-03T15:21:54;11.93;;;2.10;;
67063;SDS011;58476;48.072;11.970;2023-04-03T15:24:22;18.40;;;2.15;;
67063;SDS011;58476;48.072;11.970;2023-04-03T15:26:51;10.80;;;2.17;;
67063;SDS011;58476;48.072;11.970;2023-04-03T15:29:19;10.30;;;2.10;;
67063;SDS011;58476;48.072;11.970;2023-04-03T15:31:46;17.88;;;2.28;;
67063;SDS011;58476;48.072;11.970;2023-04-03T15:34:11;12.90;;;2.97;;
67063;SDS011;58476;48.072;11.970;2023-04-03T15:36:45;11.32;;;2.35;;
67063;SDS011;58476;48.072;11.970;2023-04-03T15:39:13;16.75;;;5.20;;
67063;SDS011;58476;48.072;11.970;2023-04-03T15:41:39;28.00;;;10.43;;
67063;SDS011;58476;48.072;11.970;2023-04-03T15:44:07;49.90;;;13.88;;
67063;SDS011;58476;48.072;11.970;2023-04-03T15:46:32;39.70;;;16.70;;
67063;SDS011;58476;48.072;11.970;2023-04-03T15:49:07;42.72;;;16.35;;
67063;SDS011;58476;48.072;11.970;2023-04-03T15:51:33;43.88;;;15.20;;
67063;SDS011;58476;48.072;11.970;2023-04-03T15:54:03;35.67;;;13.10;;
67063;SDS011;58476;48.072;11.970;2023-04-03T15:56:32;33.90;;;12.00;;
67063;SDS011;58476;48.072;11.970;2023-04-03T15:59:02;28.20;;;9.90;;
67063;SDS011;58476;48.072;11.970;2023-04-03T16:01:28;28.02;;;10.55;;
67063;SDS011;58476;48.072;11.970;2023-04-03T16:03:57;21.65;;;8.82;;
67063;SDS011;58476;48.072;11.970;2023-04-03T16:06:22;19.00;;;9.30;;
67063;SDS011;58476;48.072;11.970;2023-04-03T16:08:50;27.13;;;8.65;;
67063;SDS011;58476;48.072;11.970;2023-04-03T16:11:17;23.05;;;7.53;;
67063;SDS011;58476;48.072;11.970;2023-04-03T16:13:43;22.73;;;7.28;;
67063;SDS011;58476;48.072;11.970;2023-04-03T16:16:11;14.02;;;6.18;;
67063;SDS011;58476;48.072;11.970;2023-04-03T16:18:37;15.45;;;6.00;;
67063;SDS011;58476;48.072;11.970;2023-04-03T16:21:05;14.40;;;5.55;;
67063;SDS011;58476;48.072;11.970;2023-04-03T16:23:38;14.73;;;4.85;;
67063;SDS011;58476;48.072;11.970;2023-04-03T16:26:09;13.98;;;4.03;;
67063;SDS011;58476;48.072;11.970;2023-04-03T16:28:35;18.13;;;6.47;;
67063;SDS011;58476;48.072;11.970;2023-04-03T16:31:01;15.55;;;4.10;;
67063;SDS011;58476;48.072;11.970;2023-04-03T16:33:28;12.02;;;4.10;;
67063;SDS011;58476;48.072;11.970;2023-04-03T16:35:59;12.77;;;3.83;;
67063;SDS011;58476;48.072;11.970;2023-04-03T16:38:26;11.30;;;3.17;;
67063;SDS011;58476;48.072;11.970;2023-04-03T16:40:51;9.98;;;3.25;;
67063;SDS011;58476;48.072;11.970;2023-04-03T16:43:16;9.27;;;2.80;;
67063;SDS011;58476;48.072;11.970;2023-04-03T16:45:42;7.00;;;2.83;;
67063;SDS011;58476;48.072;11.970;2023-04-03T16:48:07;13.30;;;3.30;;
67063;SDS011;58476;48.072;11.970;2023-04-03T16:50:33;7.90;;;2.67;;